createdAt,value
2022-09-13T00:00:25.675Z,13.54
2022-09-13T00:02:54.933Z,13.52
2022-09-13T00:05:38.135Z,13.45
2022-09-13T00:08:07.051Z,13.40
2022-09-13T00:10:35.583Z,13.47
2022-09-13T00:13:08.452Z,13.48
2022-09-13T00:18:31.090Z,13.45
2022-09-13T00:21:20.454Z,13.36
2022-09-13T00:23:52.537Z,13.37
2022-09-13T00:26:25.398Z,13.32
2022-09-13T00:28:54.716Z,13.30
2022-09-13T00:31:24.757Z,13.26
2022-09-13T00:33:53.259Z,13.24
2022-09-13T00:36:23.178Z,13.18
2022-09-13T00:38:50.969Z,13.20
2022-09-13T00:41:21.153Z,13.13
2022-09-13T00:43:52.311Z,13.14
2022-09-13T00:46:29.776Z,13.11
2022-09-13T00:49:17.216Z,13.08
2022-09-13T00:51:52.352Z,13.04
2022-09-13T00:55:03.041Z,13.02
2022-09-13T00:57:41.939Z,13.11
2022-09-13T01:00:13.885Z,13.06
2022-09-13T01:02:47.336Z,13.03
2022-09-13T01:05:17.801Z,13.05
2022-09-13T01:07:50.384Z,13.03
2022-09-13T01:10:18.758Z,13.00
2022-09-13T01:12:53.176Z,12.92
2022-09-13T01:15:24.654Z,12.82
2022-09-13T01:17:56.207Z,12.77
2022-09-13T01:20:56.769Z,12.82
2022-09-13T01:23:47.846Z,12.83
2022-09-13T01:26:38.982Z,12.83
2022-09-13T01:29:29.509Z,12.79
2022-09-13T01:32:06.879Z,12.81
2022-09-13T01:34:46.501Z,12.90
2022-09-13T01:37:34.262Z,13.03
2022-09-13T01:40:08.739Z,12.94
2022-09-13T01:42:49.638Z,12.88
2022-09-13T01:45:30.293Z,12.97
2022-09-13T01:48:04.032Z,12.99
2022-09-13T01:50:41.231Z,12.79
2022-09-13T01:53:21.865Z,12.75
2022-09-13T01:55:59.465Z,12.78
2022-09-13T01:58:37.082Z,12.79
2022-09-13T02:01:15.311Z,12.74
2022-09-13T02:03:57.067Z,12.71
2022-09-13T02:06:29.345Z,12.68
2022-09-13T02:09:02.098Z,12.68
2022-09-13T02:11:52.564Z,12.62
2022-09-13T02:14:46.933Z,12.66
2022-09-13T02:17:25.788Z,12.69
2022-09-13T02:19:58.692Z,12.80
2022-09-13T02:22:37.655Z,12.80
2022-09-13T02:25:21.588Z,12.73
2022-09-13T02:27:52.595Z,12.72
2022-09-13T02:30:22.304Z,12.68
2022-09-13T02:32:56.377Z,12.79
2022-09-13T02:35:32.447Z,12.85
2022-09-13T02:38:06.175Z,12.90
2022-09-13T02:40:41.325Z,12.80
2022-09-13T02:43:15.022Z,12.85
2022-09-13T02:45:49.171Z,12.85
2022-09-13T02:48:27.217Z,12.84
2022-09-13T02:51:08.413Z,12.98
2022-09-13T02:53:46.070Z,12.86
2022-09-13T02:56:23.149Z,12.78
2022-09-13T02:59:07.178Z,12.76
2022-09-13T03:01:44.445Z,12.83
2022-09-13T03:04:21.473Z,12.83
2022-09-13T03:06:52.585Z,12.89
2022-09-13T03:14:17.216Z,12.92
2022-09-13T03:17:32.017Z,12.89
2022-09-13T03:20:53.073Z,12.94
2022-09-13T03:24:22.614Z,12.95
2022-09-13T03:46:50.079Z,12.97
2022-09-13T03:49:27.577Z,13.02
2022-09-13T03:52:10.347Z,13.07
2022-09-13T03:54:39.417Z,13.13
2022-09-13T03:57:12.541Z,12.99
2022-09-13T03:59:51.509Z,13.04
2022-09-13T04:02:23.370Z,13.04
2022-09-13T04:04:54.770Z,12.99
2022-09-13T04:07:24.385Z,12.93
2022-09-13T04:09:54.343Z,12.89
2022-09-13T04:12:22.510Z,12.90
2022-09-13T04:14:50.361Z,12.90
2022-09-13T04:17:29.894Z,12.94
2022-09-13T04:20:04.556Z,12.91
2022-09-13T04:22:33.549Z,12.92
2022-09-13T04:25:06.209Z,12.91
2022-09-13T04:27:35.627Z,12.89
2022-09-13T04:30:14.776Z,12.89
2022-09-13T04:32:45.582Z,12.92
2022-09-13T04:39:30.298Z,12.87
2022-09-13T04:42:59.045Z,12.89
2022-09-13T04:45:37.364Z,12.86
2022-09-13T04:48:56.492Z,12.85
2022-09-13T04:52:14.527Z,12.79
2022-09-13T04:59:31.225Z,12.89
2022-09-13T05:03:40.296Z,12.90
2022-09-13T05:14:51.703Z,12.88
2022-09-13T05:17:53.692Z,12.87
2022-09-13T06:03:50.302Z,13.84
2022-09-13T08:10:31.752Z,18.87
2022-09-13T08:28:12.447Z,19.89
2022-09-13T08:39:59.747Z,20.24
2022-09-13T08:42:30.734Z,19.86
2022-09-13T08:43:15.584Z,20.01
2022-09-13T08:46:00.699Z,19.79
2022-09-13T08:49:16.551Z,20.41
2022-09-13T08:53:12.988Z,21.48
2022-09-13T09:08:01.405Z,23.00
2022-09-13T10:04:18.428Z,24.03
2022-09-13T10:12:33.213Z,23.81
2022-09-13T10:15:37.402Z,24.36
2022-09-13T11:46:58.843Z,27.82
2022-09-13T11:50:00.167Z,28.01
2022-09-13T11:52:38.352Z,27.76
2022-09-13T11:55:20.615Z,27.86
2022-09-13T11:58:40.205Z,27.97
2022-09-13T12:01:39.107Z,27.74
2022-09-13T12:04:18.346Z,27.11
2022-09-13T12:07:28.659Z,27.28
2022-09-13T12:10:24.481Z,27.14
2022-09-13T12:13:22.970Z,27.16
2022-09-13T12:27:03.286Z,25.71
2022-09-13T12:37:11.736Z,25.08
2022-09-13T12:44:11.991Z,25.20
2022-09-13T12:47:19.518Z,25.32
2022-09-13T12:57:14.968Z,26.37
2022-09-13T13:00:26.773Z,26.96
2022-09-13T13:10:25.626Z,27.32
2022-09-13T13:13:39.539Z,27.95
2022-09-13T13:16:38.353Z,28.12
2022-09-13T13:19:34.293Z,27.27
2022-09-13T13:22:46.791Z,27.39
2022-09-13T13:25:45.719Z,27.18
2022-09-13T13:28:52.322Z,27.63
2022-09-13T13:35:48.843Z,27.27
2022-09-13T13:38:58.805Z,27.45
2022-09-13T13:42:05.821Z,27.65
2022-09-13T13:45:18.744Z,27.37
2022-09-13T13:52:39.524Z,26.57
2022-09-13T13:55:31.594Z,26.77
2022-09-13T13:58:06.379Z,26.86
2022-09-13T14:00:38.450Z,27.14
2022-09-13T14:03:30.980Z,27.29
2022-09-13T14:06:18.506Z,27.40
2022-09-13T14:09:14.038Z,27.44
2022-09-13T14:12:14.743Z,27.26
2022-09-13T14:15:21.069Z,27.27
2022-09-13T14:18:16.528Z,26.99
2022-09-13T14:27:46.641Z,26.64
2022-09-13T14:34:06.024Z,27.19
2022-09-13T14:40:05.732Z,27.37
2022-09-13T14:42:55.028Z,27.21
2022-09-13T14:45:34.052Z,27.23
2022-09-13T14:48:20.789Z,27.20
2022-09-13T14:50:55.992Z,26.97
2022-09-13T14:53:29.226Z,26.58
2022-09-13T14:56:00.550Z,26.21
2022-09-13T14:58:40.250Z,26.19
2022-09-13T15:01:20.000Z,26.26
2022-09-13T15:04:09.320Z,26.42
2022-09-13T15:07:33.614Z,26.47
2022-09-13T15:10:08.720Z,26.25
2022-09-13T15:12:37.641Z,26.21
2022-09-13T15:15:46.795Z,26.19
2022-09-13T15:18:36.258Z,26.32
2022-09-13T15:21:20.110Z,26.46
2022-09-13T15:23:54.614Z,26.27
2022-09-13T15:26:26.786Z,26.23
2022-09-13T15:28:56.856Z,26.56
2022-09-13T15:31:44.218Z,26.87
2022-09-13T15:34:13.781Z,27.15
2022-09-13T15:36:46.489Z,26.84
2022-09-13T15:39:21.372Z,26.24
2022-09-13T15:41:55.380Z,26.81
2022-09-13T15:44:24.401Z,26.54
2022-09-13T15:46:59.601Z,26.47
2022-09-13T15:49:29.457Z,26.82
2022-09-13T15:51:59.507Z,26.67
2022-09-13T15:54:35.095Z,26.67
2022-09-13T15:57:14.285Z,26.58
2022-09-13T15:59:42.667Z,26.57
2022-09-13T16:02:19.843Z,26.50
2022-09-13T16:04:48.276Z,26.02
2022-09-13T16:07:16.562Z,26.01
2022-09-13T16:09:46.137Z,26.20
2022-09-13T16:12:14.084Z,25.88
2022-09-13T16:14:42.010Z,25.62
2022-09-13T16:17:21.886Z,25.56
2022-09-13T16:19:49.580Z,25.57
2022-09-13T16:22:26.067Z,25.71
2022-09-13T16:31:34.639Z,25.47
2022-09-13T16:35:11.358Z,25.17
2022-09-13T16:39:06.962Z,24.93
2022-09-13T16:41:36.267Z,24.98
2022-09-13T16:44:07.854Z,24.91
2022-09-13T16:46:36.033Z,24.89
2022-09-13T16:49:26.044Z,24.71
2022-09-13T16:51:53.922Z,24.78
2022-09-13T16:58:16.095Z,24.29
2022-09-13T17:01:17.381Z,24.35
2022-09-13T17:04:11.298Z,24.55
2022-09-13T17:06:43.097Z,24.22
2022-09-13T17:09:20.653Z,24.08
2022-09-13T17:12:10.347Z,24.07
2022-09-13T17:14:56.855Z,24.07
2022-09-13T17:18:29.366Z,23.85
2022-09-13T17:21:31.949Z,23.70
2022-09-13T17:24:43.097Z,23.74
2022-09-13T17:27:33.000Z,23.69
2022-09-13T17:34:01.183Z,23.37
2022-09-13T17:37:20.149Z,23.32
2022-09-13T17:40:04.016Z,23.31
2022-09-13T17:42:34.705Z,23.36
2022-09-13T17:45:02.475Z,23.20
2022-09-13T17:47:31.664Z,23.18
2022-09-13T17:50:18.794Z,23.09
2022-09-13T17:52:48.257Z,22.99
2022-09-13T17:55:42.344Z,22.92
2022-09-13T17:58:29.181Z,22.81
2022-09-13T18:01:08.938Z,22.77
2022-09-13T18:04:08.189Z,22.61
2022-09-13T19:45:19.336Z,20.37
2022-09-13T19:51:22.588Z,20.20
2022-09-13T19:58:03.297Z,19.94
2022-09-13T20:00:37.839Z,20.04
2022-09-13T20:07:00.444Z,20.00
2022-09-13T20:09:31.440Z,20.01
2022-09-13T20:14:58.465Z,20.00
2022-09-13T20:20:53.631Z,20.00
2022-09-13T20:23:54.119Z,19.93
2022-09-13T20:26:29.454Z,19.95
2022-09-13T20:32:23.607Z,19.98
2022-09-13T20:35:27.055Z,19.97
2022-09-13T20:38:04.063Z,19.90
2022-09-13T20:41:34.333Z,19.88
2022-09-13T20:44:13.158Z,19.80
2022-09-13T20:50:05.733Z,19.77
2022-09-13T20:52:35.414Z,19.67
2022-09-13T20:55:03.664Z,19.58
2022-09-13T20:57:39.540Z,19.53
2022-09-13T21:00:09.302Z,19.50
2022-09-13T21:02:40.141Z,19.44
2022-09-13T21:05:20.635Z,19.40
2022-09-13T21:08:16.772Z,19.34
2022-09-13T21:11:02.734Z,19.24
2022-09-13T21:13:35.688Z,19.21
2022-09-13T21:16:34.302Z,19.13
2022-09-13T21:19:21.376Z,19.10
2022-09-13T21:21:49.431Z,19.07
2022-09-13T21:24:20.867Z,19.06
2022-09-13T21:26:49.141Z,19.03
2022-09-13T21:29:39.468Z,18.98
2022-09-13T21:32:10.644Z,19.00
2022-09-13T21:34:43.140Z,18.90
2022-09-13T21:37:18.839Z,18.86
2022-09-13T21:40:10.599Z,18.83
2022-09-13T21:42:38.768Z,18.82
2022-09-13T21:45:52.091Z,18.85
2022-09-13T21:48:50.788Z,18.89
2022-09-13T21:51:38.857Z,18.86
2022-09-13T21:54:09.988Z,18.84
2022-09-13T21:56:42.974Z,18.83
2022-09-13T21:59:16.642Z,18.83
2022-09-13T22:01:47.845Z,18.75
2022-09-13T22:07:09.485Z,18.67
2022-09-13T22:09:37.821Z,18.68
2022-09-13T22:12:07.609Z,18.67
2022-09-13T22:14:42.710Z,18.59
2022-09-13T22:17:15.293Z,18.59
2022-09-13T22:19:47.143Z,18.64
2022-09-13T22:22:35.995Z,18.65
2022-09-13T22:25:13.314Z,18.61
2022-09-13T22:28:04.611Z,18.60
2022-09-13T22:30:41.531Z,18.63
2022-09-13T22:33:10.464Z,18.62
2022-09-13T22:35:38.359Z,18.58
2022-09-13T22:38:06.435Z,18.54
2022-09-13T22:40:34.629Z,18.45
2022-09-13T22:43:03.915Z,18.37
2022-09-13T22:45:32.386Z,18.34
2022-09-13T22:48:00.384Z,18.29
2022-09-13T22:50:28.149Z,18.31
2022-09-13T22:52:56.075Z,18.23
2022-09-13T22:55:24.179Z,18.12
2022-09-13T22:57:53.826Z,18.09
2022-09-13T23:00:23.036Z,18.00
2022-09-13T23:02:50.859Z,17.94
2022-09-13T23:05:18.831Z,17.95
2022-09-13T23:07:46.506Z,17.88
2022-09-13T23:10:14.134Z,17.88
2022-09-13T23:12:41.901Z,17.78
2022-09-13T23:15:10.845Z,17.79
2022-09-13T23:17:40.320Z,17.78
2022-09-13T23:20:12.388Z,17.79
2022-09-13T23:22:41.510Z,17.79
2022-09-13T23:25:09.589Z,17.84
2022-09-13T23:27:37.225Z,17.83
2022-09-13T23:30:05.848Z,17.80
2022-09-13T23:32:34.552Z,17.78
2022-09-13T23:35:04.584Z,17.82
2022-09-13T23:37:42.776Z,17.79
2022-09-13T23:40:11.502Z,17.78
2022-09-13T23:42:40.095Z,17.73
2022-09-13T23:45:08.857Z,17.73
2022-09-13T23:47:36.845Z,17.62
2022-09-13T23:50:19.961Z,17.64
2022-09-13T23:52:48.094Z,17.75
2022-09-13T23:55:17.995Z,17.77
2022-09-13T23:57:46.044Z,17.80
